Cowarts, Alabama
Current Conditions -  °F | °C
As of 2:53 PM on Wednesday 17 Dec 2014 (Local Time) from KDHN Reporting Station
Clear Clear  
Wind Chill: 60°   Ceiling: Unl
Heat Index: 60°   Visibility: 10mi
Dew Point: 40°   Wind: 7mph
Humidity: 47%   Direction: 280°W
Pressure: 30.16"   Gusts: NA
Location:  31.2°N, 85.3°W
Report Text: KDHN 172053Z 28006KT 10SM CLR 16/04 A3016 RMK AO2 SLP213 T01560044 56023 $
Loading
Personal Weather Stations






























Interactive Weather Map New forecast layout! Learn more

10-Day Weather Forecast

Advertisements
Track Severe Weather on mobile